sensor_id;sensor_type;location;lat;lon;timestamp;temperature;humidity
42187;DHT22;27858;51.414;0.018;2022-07-24T00:00:07;18.90;1.00
42187;DHT22;27858;51.414;0.018;2022-07-24T00:02:34;18.90;3.80
42187;DHT22;27858;51.414;0.018;2022-07-24T00:05:01;18.80;3.40
42187;DHT22;27858;51.414;0.018;2022-07-24T00:07:28;18.90;1.00
42187;DHT22;27858;51.414;0.018;2022-07-24T00:09:55;18.90;1.00
42187;DHT22;27858;51.414;0.018;2022-07-24T00:12:22;18.90;1.00
42187;DHT22;27858;51.414;0.018;2022-07-24T00:14:49;18.90;1.00
42187;DHT22;27858;51.414;0.018;2022-07-24T00:17:16;18.80;1.40
42187;DHT22;27858;51.414;0.018;2022-07-24T00:19:43;18.80;10.30
42187;DHT22;27858;51.414;0.018;2022-07-24T00:22:10;18.80;5.70
42187;DHT22;27858;51.414;0.018;2022-07-24T00:24:36;18.80;15.20
42187;DHT22;27858;51.414;0.018;2022-07-24T00:27:03;18.70;1.00
42187;DHT22;27858;51.414;0.018;2022-07-24T00:29:30;18.80;18.70
42187;DHT22;27858;51.414;0.018;2022-07-24T00:31:57;18.70;21.60
42187;DHT22;27858;51.414;0.018;2022-07-24T00:34:24;18.70;12.20
42187;DHT22;27858;51.414;0.018;2022-07-24T00:36:51;18.70;19.70
42187;DHT22;27858;51.414;0.018;2022-07-24T00:39:17;18.70;6.60
42187;DHT22;27858;51.414;0.018;2022-07-24T00:41:45;18.60;24.50
42187;DHT22;27858;51.414;0.018;2022-07-24T00:44:13;18.70;30.40
42187;DHT22;27858;51.414;0.018;2022-07-24T00:46:42;18.60;23.30
42187;DHT22;27858;51.414;0.018;2022-07-24T00:49:12;18.70;23.60
42187;DHT22;27858;51.414;0.018;2022-07-24T00:51:49;18.60;11.90
42187;DHT22;27858;51.414;0.018;2022-07-24T00:54:18;18.60;12.40
42187;DHT22;27858;51.414;0.018;2022-07-24T00:56:47;18.60;30.90
42187;DHT22;27858;51.414;0.018;2022-07-24T00:59:15;18.60;29.80
42187;DHT22;27858;51.414;0.018;2022-07-24T01:01:42;18.60;46.90
42187;DHT22;27858;51.414;0.018;2022-07-24T01:04:09;18.60;31.80
42187;DHT22;27858;51.414;0.018;2022-07-24T01:06:46;18.60;46.90
42187;DHT22;27858;51.414;0.018;2022-07-24T01:09:13;18.60;31.10
42187;DHT22;27858;51.414;0.018;2022-07-24T01:11:41;18.60;22.80
42187;DHT22;27858;51.414;0.018;2022-07-24T01:14:09;18.60;25.10
42187;DHT22;27858;51.414;0.018;2022-07-24T01:16:36;18.60;27.40
42187;DHT22;27858;51.414;0.018;2022-07-24T01:19:04;18.50;19.40
42187;DHT22;27858;51.414;0.018;2022-07-24T01:21:31;18.60;43.20
42187;DHT22;27858;51.414;0.018;2022-07-24T01:23:58;18.60;47.80
42187;DHT22;27858;51.414;0.018;2022-07-24T01:26:25;18.50;28.90
42187;DHT22;27858;51.414;0.018;2022-07-24T01:28:52;18.50;30.30
42187;DHT22;27858;51.414;0.018;2022-07-24T01:31:19;18.50;44.00
42187;DHT22;27858;51.414;0.018;2022-07-24T01:33:46;18.50;43.50
42187;DHT22;27858;51.414;0.018;2022-07-24T01:36:13;18.50;47.40
42187;DHT22;27858;51.414;0.018;2022-07-24T01:38:40;18.50;57.40
42187;DHT22;27858;51.414;0.018;2022-07-24T01:41:07;18.40;43.70
42187;DHT22;27858;51.414;0.018;2022-07-24T01:43:33;18.40;50.10
42187;DHT22;27858;51.414;0.018;2022-07-24T01:46:00;18.30;50.30
42187;DHT22;27858;51.414;0.018;2022-07-24T01:48:27;18.40;59.30
42187;DHT22;27858;51.414;0.018;2022-07-24T01:50:54;18.40;51.40
42187;DHT22;27858;51.414;0.018;2022-07-24T01:53:21;18.40;44.80
42187;DHT22;27858;51.414;0.018;2022-07-24T01:55:52;18.30;56.90
42187;DHT22;27858;51.414;0.018;2022-07-24T01:58:19;18.40;58.60
42187;DHT22;27858;51.414;0.018;2022-07-24T02:00:49;18.30;67.10
42187;DHT22;27858;51.414;0.018;2022-07-24T02:03:16;18.30;68.60
42187;DHT22;27858;51.414;0.018;2022-07-24T02:05:43;18.20;70.70
42187;DHT22;27858;51.414;0.018;2022-07-24T02:08:10;18.20;62.60
42187;DHT22;27858;51.414;0.018;2022-07-24T02:10:36;18.20;67.70
42187;DHT22;27858;51.414;0.018;2022-07-24T02:13:03;18.20;36.90
42187;DHT22;27858;51.414;0.018;2022-07-24T02:15:32;18.20;53.70
42187;DHT22;27858;51.414;0.018;2022-07-24T02:18:01;18.20;50.10
42187;DHT22;27858;51.414;0.018;2022-07-24T02:20:28;18.20;55.40
42187;DHT22;27858;51.414;0.018;2022-07-24T02:22:55;18.20;53.30
42187;DHT22;27858;51.414;0.018;2022-07-24T02:25:22;18.10;42.40
42187;DHT22;27858;51.414;0.018;2022-07-24T02:27:49;18.10;58.20
42187;DHT22;27858;51.414;0.018;2022-07-24T02:30:19;18.10;70.60
42187;DHT22;27858;51.414;0.018;2022-07-24T02:32:46;18.10;59.80
42187;DHT22;27858;51.414;0.018;2022-07-24T02:35:13;18.10;47.40
42187;DHT22;27858;51.414;0.018;2022-07-24T02:37:42;18.10;61.80
42187;DHT22;27858;51.414;0.018;2022-07-24T02:40:10;18.10;56.10
42187;DHT22;27858;51.414;0.018;2022-07-24T02:42:37;18.10;48.80
42187;DHT22;27858;51.414;0.018;2022-07-24T02:45:05;18.10;41.50
42187;DHT22;27858;51.414;0.018;2022-07-24T02:47:32;18.10;33.50
42187;DHT22;27858;51.414;0.018;2022-07-24T02:49:59;18.20;44.50
42187;DHT22;27858;51.414;0.018;2022-07-24T02:52:26;18.20;47.80
42187;DHT22;27858;51.414;0.018;2022-07-24T02:54:53;18.10;53.90
42187;DHT22;27858;51.414;0.018;2022-07-24T02:57:20;18.20;48.10
42187;DHT22;27858;51.414;0.018;2022-07-24T02:59:47;18.10;47.50
42187;DHT22;27858;51.414;0.018;2022-07-24T03:02:18;18.10;66.80
42187;DHT22;27858;51.414;0.018;2022-07-24T03:04:46;18.10;59.80
42187;DHT22;27858;51.414;0.018;2022-07-24T03:07:13;18.00;76.10
42187;DHT22;27858;51.414;0.018;2022-07-24T03:09:40;18.00;52.30
42187;DHT22;27858;51.414;0.018;2022-07-24T03:12:07;18.00;62.30
42187;DHT22;27858;51.414;0.018;2022-07-24T03:14:34;18.00;53.80
42187;DHT22;27858;51.414;0.018;2022-07-24T03:17:01;18.00;54.40
42187;DHT22;27858;51.414;0.018;2022-07-24T03:19:28;18.00;72.60
42187;DHT22;27858;51.414;0.018;2022-07-24T03:21:55;18.00;47.70
42187;DHT22;27858;51.414;0.018;2022-07-24T03:24:22;18.00;72.10
42187;DHT22;27858;51.414;0.018;2022-07-24T03:26:48;18.00;73.30
42187;DHT22;27858;51.414;0.018;2022-07-24T03:29:15;18.00;65.90
42187;DHT22;27858;51.414;0.018;2022-07-24T03:31:42;18.00;60.30
42187;DHT22;27858;51.414;0.018;2022-07-24T03:34:09;18.00;44.20
42187;DHT22;27858;51.414;0.018;2022-07-24T03:36:36;18.10;47.90
42187;DHT22;27858;51.414;0.018;2022-07-24T03:39:03;18.10;48.80
42187;DHT22;27858;51.414;0.018;2022-07-24T03:41:32;18.00;25.30
42187;DHT22;27858;51.414;0.018;2022-07-24T03:43:59;18.10;64.00
42187;DHT22;27858;51.414;0.018;2022-07-24T03:46:26;18.00;65.10
42187;DHT22;27858;51.414;0.018;2022-07-24T03:48:55;18.00;60.90
42187;DHT22;27858;51.414;0.018;2022-07-24T03:51:22;18.00;49.30
42187;DHT22;27858;51.414;0.018;2022-07-24T03:53:51;18.00;58.40
42187;DHT22;27858;51.414;0.018;2022-07-24T03:56:20;18.00;46.40
42187;DHT22;27858;51.414;0.018;2022-07-24T03:58:52;18.00;49.90
42187;DHT22;27858;51.414;0.018;2022-07-24T04:01:19;17.90;52.00
42187;DHT22;27858;51.414;0.018;2022-07-24T04:03:47;17.90;36.70
42187;DHT22;27858;51.414;0.018;2022-07-24T04:06:16;17.90;45.30
42187;DHT22;27858;51.414;0.018;2022-07-24T04:08:43;17.90;39.00
42187;DHT22;27858;51.414;0.018;2022-07-24T04:11:11;17.90;42.80
42187;DHT22;27858;51.414;0.018;2022-07-24T04:13:38;17.90;42.80
42187;DHT22;27858;51.414;0.018;2022-07-24T04:16:09;17.90;46.80
42187;DHT22;27858;51.414;0.018;2022-07-24T04:18:36;17.90;37.90
42187;DHT22;27858;51.414;0.018;2022-07-24T04:21:03;17.90;44.70
42187;DHT22;27858;51.414;0.018;2022-07-24T04:23:30;17.80;31.00
42187;DHT22;27858;51.414;0.018;2022-07-24T04:25:56;17.90;49.80
42187;DHT22;27858;51.414;0.018;2022-07-24T04:28:23;17.90;35.90
42187;DHT22;27858;51.414;0.018;2022-07-24T04:30:50;17.80;43.00
42187;DHT22;27858;51.414;0.018;2022-07-24T04:33:17;17.80;44.80
42187;DHT22;27858;51.414;0.018;2022-07-24T04:35:44;17.80;43.30
42187;DHT22;27858;51.414;0.018;2022-07-24T04:38:11;17.90;38.30
42187;DHT22;27858;51.414;0.018;2022-07-24T04:40:37;17.90;36.40
42187;DHT22;27858;51.414;0.018;2022-07-24T04:43:04;17.80;18.90
42187;DHT22;27858;51.414;0.018;2022-07-24T04:45:31;17.90;31.00
42187;DHT22;27858;51.414;0.018;2022-07-24T04:48:01;17.90;45.90
42187;DHT22;27858;51.414;0.018;2022-07-24T04:50:28;17.90;32.70
42187;DHT22;27858;51.414;0.018;2022-07-24T04:52:55;17.90;39.20
42187;DHT22;27858;51.414;0.018;2022-07-24T04:55:22;17.90;30.90
42187;DHT22;27858;51.414;0.018;2022-07-24T04:57:49;17.90;44.20
42187;DHT22;27858;51.414;0.018;2022-07-24T05:00:16;17.90;31.20
42187;DHT22;27858;51.414;0.018;2022-07-24T05:02:43;17.90;31.60
42187;DHT22;27858;51.414;0.018;2022-07-24T05:05:10;17.90;30.80
42187;DHT22;27858;51.414;0.018;2022-07-24T05:07:37;17.90;41.30
42187;DHT22;27858;51.414;0.018;2022-07-24T05:10:05;18.00;31.60
42187;DHT22;27858;51.414;0.018;2022-07-24T05:12:32;18.00;28.40
42187;DHT22;27858;51.414;0.018;2022-07-24T05:14:59;17.90;24.10
42187;DHT22;27858;51.414;0.018;2022-07-24T05:17:26;18.00;24.90
42187;DHT22;27858;51.414;0.018;2022-07-24T05:19:52;18.00;22.60
42187;DHT22;27858;51.414;0.018;2022-07-24T05:22:19;18.10;16.20
42187;DHT22;27858;51.414;0.018;2022-07-24T05:24:46;18.00;25.00
42187;DHT22;27858;51.414;0.018;2022-07-24T05:27:13;18.00;28.70
42187;DHT22;27858;51.414;0.018;2022-07-24T05:29:40;17.90;23.70
42187;DHT22;27858;51.414;0.018;2022-07-24T05:32:08;17.90;28.80
42187;DHT22;27858;51.414;0.018;2022-07-24T05:34:35;18.00;30.00
42187;DHT22;27858;51.414;0.018;2022-07-24T05:37:07;18.00;39.30
42187;DHT22;27858;51.414;0.018;2022-07-24T05:39:35;18.00;42.10
42187;DHT22;27858;51.414;0.018;2022-07-24T05:42:02;18.00;36.10
42187;DHT22;27858;51.414;0.018;2022-07-24T05:44:29;18.00;27.50
42187;DHT22;27858;51.414;0.018;2022-07-24T05:46:56;18.10;36.70
42187;DHT22;27858;51.414;0.018;2022-07-24T05:49:23;18.10;52.20
42187;DHT22;27858;51.414;0.018;2022-07-24T05:51:52;18.10;33.60
42187;DHT22;27858;51.414;0.018;2022-07-24T05:54:19;18.10;26.60
42187;DHT22;27858;51.414;0.018;2022-07-24T05:56:45;18.30;36.20
42187;DHT22;27858;51.414;0.018;2022-07-24T05:59:12;18.30;20.10
42187;DHT22;27858;51.414;0.018;2022-07-24T06:01:39;18.30;31.60
42187;DHT22;27858;51.414;0.018;2022-07-24T06:04:06;18.30;27.20
42187;DHT22;27858;51.414;0.018;2022-07-24T06:09:23;18.40;21.70
42187;DHT22;27858;51.414;0.018;2022-07-24T06:12:32;18.40;22.70
42187;DHT22;27858;51.414;0.018;2022-07-24T06:15:05;18.50;23.80
42187;DHT22;27858;51.414;0.018;2022-07-24T06:17:32;18.60;14.20
42187;DHT22;27858;51.414;0.018;2022-07-24T06:19:59;18.70;14.80
42187;DHT22;27858;51.414;0.018;2022-07-24T06:22:26;18.70;10.20
42187;DHT22;27858;51.414;0.018;2022-07-24T06:24:53;18.80;8.30
42187;DHT22;27858;51.414;0.018;2022-07-24T06:27:21;18.80;5.30
42187;DHT22;27858;51.414;0.018;2022-07-24T06:29:48;18.70;1.10
42187;DHT22;27858;51.414;0.018;2022-07-24T06:32:15;18.70;11.00
42187;DHT22;27858;51.414;0.018;2022-07-24T06:34:46;18.70;14.30
42187;DHT22;27858;51.414;0.018;2022-07-24T06:37:18;18.80;8.20
42187;DHT22;27858;51.414;0.018;2022-07-24T06:39:46;18.90;3.90
42187;DHT22;27858;51.414;0.018;2022-07-24T06:42:16;18.90;3.20
42187;DHT22;27858;51.414;0.018;2022-07-24T06:44:44;19.00;3.10
42187;DHT22;27858;51.414;0.018;2022-07-24T06:47:11;19.10;1.00
42187;DHT22;27858;51.414;0.018;2022-07-24T06:49:39;19.10;1.00
42187;DHT22;27858;51.414;0.018;2022-07-24T06:52:09;19.10;1.00
42187;DHT22;27858;51.414;0.018;2022-07-24T06:54:36;19.10;1.00
42187;DHT22;27858;51.414;0.018;2022-07-24T06:57:10;19.30;1.00
42187;DHT22;27858;51.414;0.018;2022-07-24T06:59:45;19.30;1.00
42187;DHT22;27858;51.414;0.018;2022-07-24T07:02:13;19.30;1.00
42187;DHT22;27858;51.414;0.018;2022-07-24T07:04:41;19.40;1.00
42187;DHT22;27858;51.414;0.018;2022-07-24T07:07:08;19.40;1.00
42187;DHT22;27858;51.414;0.018;2022-07-24T07:09:35;19.40;1.00
42187;DHT22;27858;51.414;0.018;2022-07-24T07:12:03;19.50;1.00
42187;DHT22;27858;51.414;0.018;2022-07-24T07:14:30;19.50;1.00
42187;DHT22;27858;51.414;0.018;2022-07-24T07:16:57;19.70;1.00
42187;DHT22;27858;51.414;0.018;2022-07-24T07:19:24;19.80;1.00
42187;DHT22;27858;51.414;0.018;2022-07-24T07:21:51;19.90;1.00
42187;DHT22;27858;51.414;0.018;2022-07-24T07:24:18;20.00;1.00
42187;DHT22;27858;51.414;0.018;2022-07-24T07:26:45;20.00;1.00
42187;DHT22;27858;51.414;0.018;2022-07-24T07:29:12;20.10;1.00
42187;DHT22;27858;51.414;0.018;2022-07-24T07:31:39;20.10;1.00
42187;DHT22;27858;51.414;0.018;2022-07-24T07:34:05;20.10;1.00
42187;DHT22;27858;51.414;0.018;2022-07-24T07:36:32;20.20;1.00
42187;DHT22;27858;51.414;0.018;2022-07-24T07:39:00;20.30;1.00
42187;DHT22;27858;51.414;0.018;2022-07-24T07:41:28;20.30;1.00
42187;DHT22;27858;51.414;0.018;2022-07-24T07:43:55;20.40;1.00
42187;DHT22;27858;51.414;0.018;2022-07-24T07:46:25;20.50;1.00
42187;DHT22;27858;51.414;0.018;2022-07-24T07:48:53;20.50;1.00
42187;DHT22;27858;51.414;0.018;2022-07-24T07:51:20;20.60;1.00
42187;DHT22;27858;51.414;0.018;2022-07-24T07:53:50;20.60;1.00
42187;DHT22;27858;51.414;0.018;2022-07-24T07:56:17;20.60;1.00
42187;DHT22;27858;51.414;0.018;2022-07-24T07:58:47;20.70;1.00
42187;DHT22;27858;51.414;0.018;2022-07-24T08:01:13;20.70;1.00
42187;DHT22;27858;51.414;0.018;2022-07-24T08:03:40;20.70;1.00
42187;DHT22;27858;51.414;0.018;2022-07-24T08:06:07;20.90;1.00
42187;DHT22;27858;51.414;0.018;2022-07-24T08:08:40;20.80;1.00
42187;DHT22;27858;51.414;0.018;2022-07-24T08:11:08;20.80;1.00
42187;DHT22;27858;51.414;0.018;2022-07-24T08:13:34;21.00;1.00
42187;DHT22;27858;51.414;0.018;2022-07-24T08:16:01;21.00;1.00
42187;DHT22;27858;51.414;0.018;2022-07-24T08:18:28;21.20;1.00
42187;DHT22;27858;51.414;0.018;2022-07-24T08:20:55;21.30;1.00
42187;DHT22;27858;51.414;0.018;2022-07-24T08:23:22;21.40;99.90
42187;DHT22;27858;51.414;0.018;2022-07-24T08:25:48;21.50;99.90
42187;DHT22;27858;51.414;0.018;2022-07-24T08:28:15;21.50;99.90
42187;DHT22;27858;51.414;0.018;2022-07-24T08:30:42;21.40;99.90
42187;DHT22;27858;51.414;0.018;2022-07-24T08:33:10;21.60;99.90
42187;DHT22;27858;51.414;0.018;2022-07-24T08:35:37;21.70;99.90
42187;DHT22;27858;51.414;0.018;2022-07-24T08:38:03;21.70;99.90
42187;DHT22;27858;51.414;0.018;2022-07-24T08:40:39;21.80;99.90
42187;DHT22;27858;51.414;0.018;2022-07-24T08:43:07;21.90;99.90
42187;DHT22;27858;51.414;0.018;2022-07-24T08:45:40;21.90;99.90
42187;DHT22;27858;51.414;0.018;2022-07-24T08:48:09;22.00;99.90
42187;DHT22;27858;51.414;0.018;2022-07-24T08:50:40;22.20;99.90
42187;DHT22;27858;51.414;0.018;2022-07-24T08:53:09;22.30;99.90
42187;DHT22;27858;51.414;0.018;2022-07-24T08:55:36;22.30;99.90
42187;DHT22;27858;51.414;0.018;2022-07-24T08:58:03;22.40;99.90
42187;DHT22;27858;51.414;0.018;2022-07-24T09:00:31;22.60;99.90
42187;DHT22;27858;51.414;0.018;2022-07-24T09:02:58;22.70;99.90
42187;DHT22;27858;51.414;0.018;2022-07-24T09:05:26;22.70;99.90
42187;DHT22;27858;51.414;0.018;2022-07-24T09:08:06;22.70;99.90
42187;DHT22;27858;51.414;0.018;2022-07-24T09:10:33;22.70;99.90
42187;DHT22;27858;51.414;0.018;2022-07-24T09:13:12;22.80;99.90
42187;DHT22;27858;51.414;0.018;2022-07-24T09:15:47;23.00;99.90
42187;DHT22;27858;51.414;0.018;2022-07-24T09:18:32;23.20;99.90
42187;DHT22;27858;51.414;0.018;2022-07-24T09:21:13;23.20;99.90
42187;DHT22;27858;51.414;0.018;2022-07-24T09:23:41;23.30;99.90
42187;DHT22;27858;51.414;0.018;2022-07-24T09:26:08;23.40;99.90
42187;DHT22;27858;51.414;0.018;2022-07-24T09:28:52;23.30;99.90
42187;DHT22;27858;51.414;0.018;2022-07-24T09:31:20;23.40;99.90
42187;DHT22;27858;51.414;0.018;2022-07-24T09:33:50;23.40;99.90
42187;DHT22;27858;51.414;0.018;2022-07-24T09:36:18;23.60;99.90
42187;DHT22;27858;51.414;0.018;2022-07-24T09:38:51;23.60;99.90
42187;DHT22;27858;51.414;0.018;2022-07-24T09:41:20;23.60;99.90
42187;DHT22;27858;51.414;0.018;2022-07-24T09:43:59;23.70;99.90
42187;DHT22;27858;51.414;0.018;2022-07-24T09:46:27;23.80;99.90
42187;DHT22;27858;51.414;0.018;2022-07-24T09:48:59;23.90;99.90
42187;DHT22;27858;51.414;0.018;2022-07-24T09:51:27;23.90;99.90
42187;DHT22;27858;51.414;0.018;2022-07-24T09:53:59;23.80;99.90
42187;DHT22;27858;51.414;0.018;2022-07-24T09:56:27;23.90;99.90
42187;DHT22;27858;51.414;0.018;2022-07-24T09:58:56;24.20;99.90
42187;DHT22;27858;51.414;0.018;2022-07-24T10:01:27;24.10;99.90
42187;DHT22;27858;51.414;0.018;2022-07-24T10:03:55;24.20;99.90
42187;DHT22;27858;51.414;0.018;2022-07-24T10:06:27;24.30;99.90
42187;DHT22;27858;51.414;0.018;2022-07-24T10:08:55;24.10;99.90
42187;DHT22;27858;51.414;0.018;2022-07-24T10:11:23;24.20;99.90
42187;DHT22;27858;51.414;0.018;2022-07-24T10:13:50;24.30;99.90
42187;DHT22;27858;51.414;0.018;2022-07-24T10:16:29;24.20;99.90
42187;DHT22;27858;51.414;0.018;2022-07-24T10:18:57;24.20;99.90
42187;DHT22;27858;51.414;0.018;2022-07-24T10:21:27;24.50;99.90
42187;DHT22;27858;51.414;0.018;2022-07-24T10:26:44;24.40;99.90
42187;DHT22;27858;51.414;0.018;2022-07-24T10:29:22;24.60;99.90
42187;DHT22;27858;51.414;0.018;2022-07-24T10:31:54;24.70;99.90
42187;DHT22;27858;51.414;0.018;2022-07-24T10:37:23;24.90;99.90
42187;DHT22;27858;51.414;0.018;2022-07-24T10:40:28;24.90;99.90
42187;DHT22;27858;51.414;0.018;2022-07-24T10:45:33;25.10;99.90
42187;DHT22;27858;51.414;0.018;2022-07-24T10:56:24;25.00;99.90
42187;DHT22;27858;51.414;0.018;2022-07-24T10:58:52;24.90;99.90
42187;DHT22;27858;51.414;0.018;2022-07-24T11:01:47;24.90;99.90
42187;DHT22;27858;51.414;0.018;2022-07-24T11:06:48;25.30;99.90
42187;DHT22;27858;51.414;0.018;2022-07-24T11:09:17;25.20;99.90
42187;DHT22;27858;51.414;0.018;2022-07-24T11:14:47;25.20;99.90
42187;DHT22;27858;51.414;0.018;2022-07-24T11:17:37;25.10;99.90
42187;DHT22;27858;51.414;0.018;2022-07-24T11:20:11;25.30;99.90
42187;DHT22;27858;51.414;0.018;2022-07-24T11:22:53;25.10;99.90
42187;DHT22;27858;51.414;0.018;2022-07-24T11:25:25;25.40;99.90
42187;DHT22;27858;51.414;0.018;2022-07-24T11:28:12;25.50;99.90
42187;DHT22;27858;51.414;0.018;2022-07-24T11:30:44;25.70;99.90
42187;DHT22;27858;51.414;0.018;2022-07-24T11:33:16;25.70;99.90
42187;DHT22;27858;51.414;0.018;2022-07-24T11:35:46;25.40;99.90
42187;DHT22;27858;51.414;0.018;2022-07-24T11:38:14;25.50;99.90
42187;DHT22;27858;51.414;0.018;2022-07-24T11:40:42;25.40;99.90
42187;DHT22;27858;51.414;0.018;2022-07-24T11:43:08;25.50;99.90
42187;DHT22;27858;51.414;0.018;2022-07-24T11:45:38;25.50;99.90
42187;DHT22;27858;51.414;0.018;2022-07-24T11:48:05;25.70;99.90
42187;DHT22;27858;51.414;0.018;2022-07-24T11:50:32;25.90;99.90
42187;DHT22;27858;51.414;0.018;2022-07-24T11:53:06;25.90;99.90
42187;DHT22;27858;51.414;0.018;2022-07-24T11:55:33;25.80;99.90
42187;DHT22;27858;51.414;0.018;2022-07-24T11:58:00;25.60;99.90
42187;DHT22;27858;51.414;0.018;2022-07-24T12:00:47;25.60;99.90
42187;DHT22;27858;51.414;0.018;2022-07-24T12:03:14;25.80;99.90
42187;DHT22;27858;51.414;0.018;2022-07-24T12:05:41;25.90;99.90
42187;DHT22;27858;51.414;0.018;2022-07-24T12:08:23;25.90;99.90
42187;DHT22;27858;51.414;0.018;2022-07-24T12:10:57;25.80;99.90
42187;DHT22;27858;51.414;0.018;2022-07-24T12:13:27;26.10;99.90
42187;DHT22;27858;51.414;0.018;2022-07-24T12:15:57;26.30;99.90
42187;DHT22;27858;51.414;0.018;2022-07-24T12:18:24;26.50;99.90
42187;DHT22;27858;51.414;0.018;2022-07-24T12:20:59;26.40;99.90
42187;DHT22;27858;51.414;0.018;2022-07-24T12:23:27;26.50;99.90
42187;DHT22;27858;51.414;0.018;2022-07-24T12:25:56;26.30;99.90
42187;DHT22;27858;51.414;0.018;2022-07-24T12:28:23;26.20;99.90
42187;DHT22;27858;51.414;0.018;2022-07-24T12:30:52;26.10;99.90
42187;DHT22;27858;51.414;0.018;2022-07-24T12:33:25;26.30;99.90
42187;DHT22;27858;51.414;0.018;2022-07-24T12:38:28;26.30;99.90
42187;DHT22;27858;51.414;0.018;2022-07-24T12:41:10;26.40;99.90
42187;DHT22;27858;51.414;0.018;2022-07-24T12:44:00;26.50;99.90
42187;DHT22;27858;51.414;0.018;2022-07-24T12:46:31;26.50;99.90
42187;DHT22;27858;51.414;0.018;2022-07-24T12:49:13;26.60;99.90
42187;DHT22;27858;51.414;0.018;2022-07-24T12:51:57;26.70;99.90
42187;DHT22;27858;51.414;0.018;2022-07-24T12:54:29;26.80;99.90
42187;DHT22;27858;51.414;0.018;2022-07-24T12:57:01;27.00;99.90
42187;DHT22;27858;51.414;0.018;2022-07-24T12:59:34;26.50;99.90
42187;DHT22;27858;51.414;0.018;2022-07-24T13:02:05;26.70;99.90
42187;DHT22;27858;51.414;0.018;2022-07-24T13:04:39;26.70;99.90
42187;DHT22;27858;51.414;0.018;2022-07-24T13:07:07;26.40;99.90
42187;DHT22;27858;51.414;0.018;2022-07-24T13:09:38;26.40;99.90
42187;DHT22;27858;51.414;0.018;2022-07-24T13:12:06;26.70;99.90
42187;DHT22;27858;51.414;0.018;2022-07-24T13:14:34;26.70;99.90
42187;DHT22;27858;51.414;0.018;2022-07-24T13:17:16;26.80;99.90
42187;DHT22;27858;51.414;0.018;2022-07-24T13:19:45;26.90;99.90
42187;DHT22;27858;51.414;0.018;2022-07-24T13:22:14;26.90;99.90
42187;DHT22;27858;51.414;0.018;2022-07-24T13:24:41;27.10;99.90
42187;DHT22;27858;51.414;0.018;2022-07-24T13:27:10;27.30;99.90
42187;DHT22;27858;51.414;0.018;2022-07-24T13:29:37;27.50;99.90
42187;DHT22;27858;51.414;0.018;2022-07-24T13:32:05;27.80;99.90
42187;DHT22;27858;51.414;0.018;2022-07-24T13:34:32;27.70;99.90
42187;DHT22;27858;51.414;0.018;2022-07-24T13:37:03;28.00;99.90
42187;DHT22;27858;51.414;0.018;2022-07-24T13:39:33;28.10;99.90
42187;DHT22;27858;51.414;0.018;2022-07-24T13:42:03;28.10;99.90
42187;DHT22;27858;51.414;0.018;2022-07-24T13:44:29;28.00;99.90
42187;DHT22;27858;51.414;0.018;2022-07-24T13:46:57;27.20;99.90
42187;DHT22;27858;51.414;0.018;2022-07-24T13:49:24;27.60;99.90
42187;DHT22;27858;51.414;0.018;2022-07-24T13:51:51;27.60;99.90
42187;DHT22;27858;51.414;0.018;2022-07-24T13:54:19;27.80;99.90
42187;DHT22;27858;51.414;0.018;2022-07-24T13:56:46;27.70;99.90
42187;DHT22;27858;51.414;0.018;2022-07-24T13:59:12;27.80;99.90
42187;DHT22;27858;51.414;0.018;2022-07-24T14:01:39;28.00;99.90
42187;DHT22;27858;51.414;0.018;2022-07-24T14:04:07;28.10;99.90
42187;DHT22;27858;51.414;0.018;2022-07-24T14:06:57;28.20;99.90
42187;DHT22;27858;51.414;0.018;2022-07-24T14:09:24;28.60;99.90
42187;DHT22;27858;51.414;0.018;2022-07-24T14:11:52;28.80;99.90
42187;DHT22;27858;51.414;0.018;2022-07-24T14:14:20;29.00;99.90
42187;DHT22;27858;51.414;0.018;2022-07-24T14:16:47;28.30;99.90
42187;DHT22;27858;51.414;0.018;2022-07-24T14:19:14;28.70;99.90
42187;DHT22;27858;51.414;0.018;2022-07-24T14:21:41;28.80;99.90
42187;DHT22;27858;51.414;0.018;2022-07-24T14:24:16;28.80;99.90
42187;DHT22;27858;51.414;0.018;2022-07-24T14:26:45;29.00;99.90
42187;DHT22;27858;51.414;0.018;2022-07-24T14:29:12;29.10;99.90
42187;DHT22;27858;51.414;0.018;2022-07-24T14:31:39;29.60;99.90
42187;DHT22;27858;51.414;0.018;2022-07-24T14:34:07;29.10;99.90
42187;DHT22;27858;51.414;0.018;2022-07-24T14:36:35;29.20;99.90
42187;DHT22;27858;51.414;0.018;2022-07-24T14:39:02;28.70;99.90
42187;DHT22;27858;51.414;0.018;2022-07-24T14:41:29;28.60;99.90
42187;DHT22;27858;51.414;0.018;2022-07-24T14:43:56;28.60;99.90
42187;DHT22;27858;51.414;0.018;2022-07-24T14:46:28;28.80;99.90
42187;DHT22;27858;51.414;0.018;2022-07-24T14:48:54;28.90;99.90
42187;DHT22;27858;51.414;0.018;2022-07-24T14:51:21;28.50;99.90
42187;DHT22;27858;51.414;0.018;2022-07-24T14:53:48;28.20;99.90
42187;DHT22;27858;51.414;0.018;2022-07-24T14:56:15;28.40;99.90
42187;DHT22;27858;51.414;0.018;2022-07-24T14:58:42;28.90;99.90
42187;DHT22;27858;51.414;0.018;2022-07-24T15:01:09;28.80;99.90
42187;DHT22;27858;51.414;0.018;2022-07-24T15:03:36;29.00;99.90
42187;DHT22;27858;51.414;0.018;2022-07-24T15:06:02;29.00;99.90
42187;DHT22;27858;51.414;0.018;2022-07-24T15:08:29;28.50;99.90
42187;DHT22;27858;51.414;0.018;2022-07-24T15:10:56;28.30;99.90
42187;DHT22;27858;51.414;0.018;2022-07-24T15:13:23;28.30;99.90
42187;DHT22;27858;51.414;0.018;2022-07-24T15:15:55;28.50;99.90
42187;DHT22;27858;51.414;0.018;2022-07-24T15:18:22;29.20;99.90
42187;DHT22;27858;51.414;0.018;2022-07-24T15:20:49;29.10;99.90
42187;DHT22;27858;51.414;0.018;2022-07-24T15:23:16;29.30;99.90
42187;DHT22;27858;51.414;0.018;2022-07-24T15:25:43;29.60;99.90
42187;DHT22;27858;51.414;0.018;2022-07-24T15:28:10;29.30;99.90
42187;DHT22;27858;51.414;0.018;2022-07-24T15:30:37;29.20;99.90
42187;DHT22;27858;51.414;0.018;2022-07-24T15:33:06;29.40;99.90
42187;DHT22;27858;51.414;0.018;2022-07-24T15:35:33;30.20;99.90
42187;DHT22;27858;51.414;0.018;2022-07-24T15:38:00;30.30;99.90
42187;DHT22;27858;51.414;0.018;2022-07-24T15:40:27;30.10;99.90
42187;DHT22;27858;51.414;0.018;2022-07-24T15:42:54;29.60;99.90
42187;DHT22;27858;51.414;0.018;2022-07-24T15:45:21;29.70;99.90
42187;DHT22;27858;51.414;0.018;2022-07-24T15:47:51;30.10;99.90
42187;DHT22;27858;51.414;0.018;2022-07-24T15:50:19;29.90;99.90
42187;DHT22;27858;51.414;0.018;2022-07-24T15:52:46;29.90;99.90
42187;DHT22;27858;51.414;0.018;2022-07-24T15:55:13;29.90;99.90
42187;DHT22;27858;51.414;0.018;2022-07-24T15:57:49;29.70;99.90
42187;DHT22;27858;51.414;0.018;2022-07-24T16:00:16;29.70;99.90
42187;DHT22;27858;51.414;0.018;2022-07-24T16:02:44;29.80;99.90
42187;DHT22;27858;51.414;0.018;2022-07-24T16:05:11;29.80;99.90
42187;DHT22;27858;51.414;0.018;2022-07-24T16:07:38;29.90;99.90
42187;DHT22;27858;51.414;0.018;2022-07-24T16:10:06;29.90;99.90